Time;durP1;ratioP1;P1;durP2;ratioP2;P2;SDS_P1;SDS_P2;PMS_P1;PMS_P2;Temp;Humidity;BMP_temperature;BMP_pressure;BME280_temperature;BME280_humidity;BME280_pressure;Samples;Min_cycle;Max_cycle;Signal;HPM_P1;HPM_P2
2021/07/16 00:00:34;;;;;;;8.00;6.90;;;25.20;55.30;;;;;;5011652;28;20596;-62
2021/07/16 00:03:00;;;;;;;9.18;7.22;;;25.10;55.40;;;;;;5011545;28;20033;-62
2021/07/16 00:05:25;;;;;;;9.75;6.95;;;25.10;55.60;;;;;;5011382;28;20045;-63
2021/07/16 00:07:51;;;;;;;9.32;7.13;;;25.00;55.60;;;;;;5009970;28;20493;-63
2021/07/16 00:10:19;;;;;;;8.00;6.75;;;25.00;56.00;;;;;;5026582;28;20025;-63
2021/07/16 00:12:45;;;;;;;9.77;6.85;;;24.90;56.10;;;;;;5011442;28;20113;-62
2021/07/16 00:15:11;;;;;;;10.13;7.00;;;24.90;56.30;;;;;;5026436;28;20022;-62
2021/07/16 00:17:37;;;;;;;8.13;6.70;;;24.80;56.40;;;;;;5011392;28;20041;-63
2021/07/16 00:20:04;;;;;;;9.65;7.30;;;24.80;56.70;;;;;;5029719;28;20037;-62
2021/07/16 00:22:30;;;;;;;9.15;7.30;;;24.80;56.90;;;;;;5063185;28;20362;-61
2021/07/16 00:24:55;;;;;;;9.15;7.05;;;24.80;57.20;;;;;;5030969;28;20032;-62
2021/07/16 00:27:21;;;;;;;8.80;6.93;;;24.70;57.20;;;;;;5030891;28;20017;-63
2021/07/16 00:29:47;;;;;;;8.60;7.32;;;24.60;57.30;;;;;;5062934;28;20427;-62
2021/07/16 00:32:12;;;;;;;8.98;6.90;;;24.60;57.70;;;;;;5063138;28;20033;-63
2021/07/16 00:34:38;;;;;;;9.40;7.57;;;24.50;57.70;;;;;;5030877;28;20083;-63
2021/07/16 00:37:04;;;;;;;9.23;7.38;;;24.50;58.00;;;;;;5030790;28;20079;-63
2021/07/16 00:39:29;;;;;;;9.52;8.13;;;24.40;58.30;;;;;;5046045;28;20112;-63
2021/07/16 00:41:55;;;;;;;9.77;7.93;;;24.40;58.70;;;;;;5030818;28;20223;-63
2021/07/16 00:44:21;;;;;;;9.82;8.07;;;24.30;58.80;;;;;;5031245;28;20030;-62
2021/07/16 00:46:47;;;;;;;10.85;8.73;;;24.30;59.10;;;;;;5050158;28;20589;-62
2021/07/16 00:49:12;;;;;;;9.63;7.97;;;24.30;59.30;;;;;;5034412;28;20056;-62
2021/07/16 00:51:39;;;;;;;10.25;8.80;;;24.30;59.30;;;;;;5034416;28;20101;-62
2021/07/16 00:54:05;;;;;;;10.75;8.32;;;24.30;59.40;;;;;;5066293;28;20025;-62
2021/07/16 00:56:30;;;;;;;10.32;8.85;;;24.20;59.50;;;;;;5032886;28;20029;-62
2021/07/16 00:58:56;;;;;;;12.90;9.32;;;24.20;59.60;;;;;;5066338;28;20041;-64
2021/07/16 01:01:22;;;;;;;10.95;9.43;;;24.20;59.70;;;;;;5034182;28;20037;-61
2021/07/16 01:03:49;;;;;;;11.32;10.13;;;24.20;59.80;;;;;;5034171;28;20110;-62
2021/07/16 01:06:14;;;;;;;10.88;9.07;;;24.30;59.90;;;;;;5032898;28;20029;-62
2021/07/16 01:08:40;;;;;;;10.70;8.80;;;24.30;59.60;;;;;;5033836;28;20041;-62
2021/07/16 01:11:06;;;;;;;10.43;8.07;;;24.30;59.50;;;;;;5033905;28;20045;-62
2021/07/16 01:13:31;;;;;;;11.40;8.70;;;24.20;59.30;;;;;;5033966;28;20038;-62
2021/07/16 01:15:57;;;;;;;9.43;7.68;;;24.20;59.40;;;;;;5033968;28;20030;-62
2021/07/16 01:18:23;;;;;;;10.07;7.63;;;24.20;59.20;;;;;;5065690;28;20508;-61
2021/07/16 01:20:48;;;;;;;10.20;8.18;;;24.20;59.30;;;;;;5047238;28;20381;-62
2021/07/16 01:23:19;;;;;;;10.65;8.18;;;24.20;59.30;;;;;;5013970;28;20034;-62
2021/07/16 01:25:44;;;;;;;10.75;8.43;;;24.20;59.30;;;;;;5013989;28;20021;-62
2021/07/16 01:28:10;;;;;;;9.57;8.25;;;24.20;59.30;;;;;;5012735;28;20428;-62
2021/07/16 01:30:36;;;;;;;11.20;8.73;;;24.20;59.30;;;;;;5012724;28;20038;-63
2021/07/16 01:33:02;;;;;;;10.27;8.60;;;24.20;59.50;;;;;;5029195;28;20049;-62
2021/07/16 01:35:28;;;;;;;11.30;9.77;;;24.20;60.20;;;;;;5013723;28;20466;-62
2021/07/16 01:37:54;;;;;;;10.73;8.98;;;24.10;59.70;;;;;;5013525;28;20086;-62
2021/07/16 01:40:21;;;;;;;10.73;8.82;;;24.10;59.80;;;;;;5014487;28;20041;-62
2021/07/16 01:42:52;;;;;;;12.40;9.50;;;24.10;59.90;;;;;;5013939;28;20649;-62
2021/07/16 01:45:19;;;;;;;11.18;9.23;;;24.10;60.20;;;;;;5013483;28;20034;-63
2021/07/16 01:47:50;;;;;;;11.20;9.30;;;24.10;60.40;;;;;;5013596;28;20032;-63
2021/07/16 01:50:16;;;;;;;11.80;8.95;;;24.00;60.50;;;;;;5013481;28;20393;-63
2021/07/16 01:52:43;;;;;;;10.60;9.40;;;24.00;60.30;;;;;;5013613;28;20030;-63
2021/07/16 01:55:09;;;;;;;12.68;9.35;;;24.00;60.40;;;;;;5028460;28;20022;-63
2021/07/16 01:57:35;;;;;;;10.90;8.35;;;24.00;60.40;;;;;;5012474;28;20469;-62
2021/07/16 02:00:01;;;;;;;11.52;9.30;;;24.00;60.40;;;;;;5013412;28;20072;-63
2021/07/16 02:02:27;;;;;;;11.35;8.85;;;24.00;60.50;;;;;;5013312;28;20022;-62
2021/07/16 02:04:53;;;;;;;12.45;9.02;;;23.90;60.50;;;;;;5013158;28;20025;-62
2021/07/16 02:07:19;;;;;;;10.40;8.85;;;23.90;60.50;;;;;;5011686;28;20053;-62
2021/07/16 02:09:44;;;;;;;11.88;9.40;;;23.90;60.60;;;;;;5013541;28;20022;-62
2021/07/16 02:12:10;;;;;;;12.13;9.63;;;23.80;60.80;;;;;;5013348;28;20093;-63
2021/07/16 02:14:35;;;;;;;12.18;9.80;;;23.80;61.00;;;;;;5013073;28;20046;-63
2021/07/16 02:17:01;;;;;;;12.55;9.55;;;23.80;61.40;;;;;;5012985;28;20022;-62
2021/07/16 02:19:27;;;;;;;12.68;10.18;;;23.80;61.30;;;;;;5020279;28;20053;-62
2021/07/16 02:21:52;;;;;;;15.77;10.25;;;23.80;61.10;;;;;;5032742;28;20022;-62
2021/07/16 02:24:18;;;;;;;11.85;9.70;;;23.90;61.30;;;;;;5032786;28;20037;-62
2021/07/16 02:26:44;;;;;;;12.45;10.32;;;23.90;60.50;;;;;;5032502;28;20029;-62
2021/07/16 02:29:09;;;;;;;12.77;10.52;;;24.00;60.40;;;;;;5032520;28;20388;-62
2021/07/16 02:31:35;;;;;;;14.73;11.43;;;24.00;60.30;;;;;;5032530;28;20028;-62
2021/07/16 02:34:01;;;;;;;16.98;13.75;;;24.00;60.30;;;;;;5031143;28;20469;-62
2021/07/16 02:36:26;;;;;;;13.20;11.13;;;24.00;60.30;;;;;;5032359;28;20025;-62
2021/07/16 02:38:52;;;;;;;24.80;21.85;;;24.00;60.30;;;;;;5032459;28;20017;-63
2021/07/16 02:41:18;;;;;;;62.70;49.10;;;24.10;60.40;;;;;;5032288;28;20025;-62
2021/07/16 02:43:44;;;;;;;31.13;24.88;;;24.00;60.40;;;;;;5031370;28;20387;-61
2021/07/16 02:46:09;;;;;;;20.40;14.95;;;24.00;60.40;;;;;;5032351;28;20393;-62
2021/07/16 02:48:35;;;;;;;13.80;11.02;;;24.00;60.50;;;;;;5031180;28;20095;-62
2021/07/16 02:51:00;;;;;;;13.05;10.55;;;24.00;60.60;;;;;;5032497;28;20026;-63
2021/07/16 02:53:26;;;;;;;19.13;14.25;;;24.00;60.60;;;;;;5030931;28;20037;-62
2021/07/16 02:55:52;;;;;;;22.50;16.88;;;24.00;60.70;;;;;;5032150;28;20034;-63
2021/07/16 02:58:18;;;;;;;23.75;17.98;;;24.00;60.70;;;;;;5031950;28;20029;-63
2021/07/16 03:00:43;;;;;;;27.95;21.60;;;24.00;60.60;;;;;;5032080;28;20109;-63
2021/07/16 03:03:09;;;;;;;19.08;14.60;;;24.00;60.70;;;;;;5031775;28;20026;-62
2021/07/16 03:05:36;;;;;;;14.30;10.90;;;24.10;60.60;;;;;;5031905;28;20029;-62
2021/07/16 03:08:02;;;;;;;16.13;12.63;;;24.10;60.50;;;;;;5031562;28;20042;-62
2021/07/16 03:10:31;;;;;;;24.10;15.65;;;24.10;60.70;;;;;;5030735;28;20036;-62
2021/07/16 03:12:58;;;;;;;23.30;17.60;;;24.10;60.80;;;;;;5031747;28;20163;-62
2021/07/16 03:15:24;;;;;;;21.77;16.80;;;24.20;60.70;;;;;;5030515;28;20043;-63
2021/07/16 03:17:50;;;;;;;22.17;17.05;;;24.20;60.60;;;;;;5030321;28;20022;-62
2021/07/16 03:20:17;;;;;;;16.00;12.90;;;24.30;60.80;;;;;;5030322;28;20021;-62
2021/07/16 03:22:43;;;;;;;16.25;13.57;;;24.30;60.60;;;;;;5031507;28;20063;-63
2021/07/16 03:25:11;;;;;;;21.60;16.90;;;24.40;60.80;;;;;;5031380;28;20056;-62
2021/07/16 03:27:37;;;;;;;22.52;17.20;;;24.50;60.60;;;;;;5031396;28;20052;-62
2021/07/16 03:30:03;;;;;;;18.70;13.82;;;24.50;60.70;;;;;;5030292;28;20028;-62
2021/07/16 03:32:29;;;;;;;16.85;15.05;;;24.50;60.60;;;;;;5031566;28;20037;-62
2021/07/16 03:34:54;;;;;;;16.88;13.27;;;24.50;60.40;;;;;;5030036;28;20381;-63
2021/07/16 03:37:20;;;;;;;15.35;12.75;;;24.60;60.40;;;;;;5030040;28;20483;-64
2021/07/16 03:39:46;;;;;;;12.95;11.35;;;24.60;60.40;;;;;;5031450;28;20496;-64
2021/07/16 03:42:12;;;;;;;13.27;10.45;;;24.80;60.10;;;;;;5031507;28;20484;-63
2021/07/16 03:44:37;;;;;;;12.35;10.13;;;24.70;60.10;;;;;;5030162;28;20021;-63
2021/07/16 03:47:03;;;;;;;14.82;9.93;;;24.80;60.10;;;;;;5030070;28;20040;-63
2021/07/16 03:49:29;;;;;;;11.38;9.00;;;24.90;60.10;;;;;;5030161;28;20817;-62
2021/07/16 03:51:55;;;;;;;13.15;11.25;;;25.00;60.00;;;;;;5030482;28;20033;-62
2021/07/16 03:54:21;;;;;;;13.25;10.80;;;25.00;59.80;;;;;;5030045;28;20037;-63
2021/07/16 03:56:48;;;;;;;14.18;11.35;;;25.10;59.80;;;;;;5029922;28;20022;-64
2021/07/16 03:59:14;;;;;;;21.17;17.65;;;25.20;59.80;;;;;;5031148;28;20461;-65
2021/07/16 04:01:39;;;;;;;17.90;14.40;;;25.20;59.60;;;;;;5030997;28;20100;-62
2021/07/16 04:04:05;;;;;;;15.25;13.45;;;25.30;59.60;;;;;;5030085;28;20465;-62
2021/07/16 04:06:32;;;;;;;13.98;11.60;;;25.30;59.30;;;;;;5030851;28;20033;-62
2021/07/16 04:09:26;;;;;;;13.13;10.35;;;25.30;59.20;;;;;;5031173;28;20030;-62
2021/07/16 04:12:02;;;;;;;11.63;9.25;;;25.40;59.00;;;;;;5031066;28;20022;-62
2021/07/16 04:14:28;;;;;;;12.55;9.02;;;25.50;58.50;;;;;;5030967;28;20062;-63
2021/07/16 04:16:53;;;;;;;11.90;8.52;;;25.60;58.10;;;;;;5030873;28;20053;-62
2021/07/16 04:19:19;;;;;;;10.38;8.93;;;25.70;58.00;;;;;;5029785;28;20018;-63
2021/07/16 04:21:45;;;;;;;12.25;8.38;;;25.80;57.90;;;;;;5034847;28;20028;-63
2021/07/16 04:24:10;;;;;;;10.23;7.65;;;25.90;57.80;;;;;;5034868;28;20037;-63
2021/07/16 04:26:36;;;;;;;10.93;7.90;;;26.00;57.70;;;;;;5034696;28;20468;-63
2021/07/16 04:29:01;;;;;;;12.23;8.77;;;26.10;57.50;;;;;;5035181;28;20140;-63
2021/07/16 04:31:27;;;;;;;10.82;8.02;;;26.20;57.20;;;;;;5034584;28;20029;-63
2021/07/16 04:33:52;;;;;;;11.30;8.25;;;26.20;57.20;;;;;;5033225;28;20044;-63
2021/07/16 04:36:18;;;;;;;10.18;8.23;;;26.30;57.00;;;;;;5034587;28;20026;-63
2021/07/16 04:38:44;;;;;;;11.52;9.10;;;26.30;56.80;;;;;;5034532;28;20477;-63
2021/07/16 04:41:09;;;;;;;10.05;8.48;;;26.50;56.70;;;;;;5034169;28;20112;-63
2021/07/16 04:43:35;;;;;;;10.02;8.30;;;26.50;56.70;;;;;;5066259;28;20044;-63
2021/07/16 04:46:00;;;;;;;10.80;8.60;;;26.50;56.70;;;;;;5033990;28;20064;-62
2021/07/16 04:48:26;;;;;;;9.93;8.70;;;26.70;56.80;;;;;;5034437;28;20469;-62
2021/07/16 04:50:52;;;;;;;11.18;9.18;;;26.70;56.80;;;;;;5034431;28;20087;-62
2021/07/16 04:53:17;;;;;;;10.00;8.52;;;26.70;56.80;;;;;;5034133;28;20025;-64
2021/07/16 04:55:43;;;;;;;10.55;9.02;;;26.80;56.80;;;;;;5034126;28;20033;-63
2021/07/16 04:58:09;;;;;;;12.32;9.55;;;26.90;56.90;;;;;;5034218;28;20469;-63
2021/07/16 05:00:34;;;;;;;11.52;10.32;;;27.00;57.00;;;;;;5034293;28;20025;-64
2021/07/16 05:03:01;;;;;;;12.73;11.43;;;27.10;57.10;;;;;;5034171;28;20108;-64
2021/07/16 05:05:26;;;;;;;12.30;11.00;;;27.20;57.20;;;;;;5034121;28;20060;-65
2021/07/16 05:07:52;;;;;;;13.80;12.40;;;27.20;57.10;;;;;;5033935;28;20544;-63
2021/07/16 05:10:18;;;;;;;12.48;10.80;;;27.30;57.10;;;;;;5033808;28;20033;-63
2021/07/16 05:12:43;;;;;;;13.40;12.00;;;27.30;57.30;;;;;;5033776;28;20029;-63
2021/07/16 05:15:10;;;;;;;12.73;11.35;;;27.40;57.30;;;;;;5033753;28;20025;-63
2021/07/16 05:17:36;;;;;;;12.63;11.32;;;27.40;57.40;;;;;;5033750;28;20060;-64
2021/07/16 05:20:03;;;;;;;11.80;10.57;;;27.50;57.30;;;;;;5032503;28;20052;-63
2021/07/16 05:22:29;;;;;;;12.00;10.80;;;27.70;56.80;;;;;;5034035;28;20381;-63
2021/07/16 05:24:55;;;;;;;11.50;10.30;;;27.80;56.70;;;;;;5033556;28;20029;-62
2021/07/16 05:27:20;;;;;;;12.68;10.32;;;27.90;56.40;;;;;;5032395;28;20029;-65
2021/07/16 05:29:46;;;;;;;11.52;10.20;;;28.00;56.10;;;;;;5033476;28;20530;-63
2021/07/16 05:32:11;;;;;;;10.57;9.40;;;28.10;55.80;;;;;;5032375;28;20499;-63
2021/07/16 05:34:37;;;;;;;11.57;9.38;;;28.20;55.50;;;;;;5033366;28;20033;-66
2021/07/16 05:37:03;;;;;;;10.45;9.35;;;28.30;55.50;;;;;;5033051;28;20029;-64
2021/07/16 05:39:28;;;;;;;9.82;8.80;;;28.50;55.30;;;;;;5033254;28;20037;-63
2021/07/16 05:41:54;;;;;;;8.90;8.00;;;28.60;55.50;;;;;;5032283;28;20029;-63
2021/07/16 05:44:20;;;;;;;9.27;7.40;;;28.70;55.30;;;;;;5033342;28;20079;-64
2021/07/16 05:46:45;;;;;;;9.05;6.82;;;28.80;55.30;;;;;;5032105;28;20083;-63
2021/07/16 05:49:11;;;;;;;10.85;7.20;;;28.90;55.20;;;;;;5033466;28;20476;-65
2021/07/16 05:51:37;;;;;;;9.30;6.30;;;29.10;53.60;;;;;;5033264;28;20446;-64
2021/07/16 05:54:02;;;;;;;12.23;7.07;;;29.20;52.10;;;;;;5033036;28;20033;-62
2021/07/16 05:56:28;;;;;;;9.25;6.72;;;29.30;52.30;;;;;;5032974;28;20022;-64
2021/07/16 05:58:54;;;;;;;9.63;6.20;;;29.40;52.30;;;;;;5033013;28;20017;-64
2021/07/16 06:01:19;;;;;;;11.43;7.43;;;29.50;51.40;;;;;;5031582;28;20473;-63
2021/07/16 06:03:45;;;;;;;8.70;6.43;;;29.60;50.50;;;;;;5032862;28;20044;-63
2021/07/16 06:06:10;;;;;;;12.10;7.10;;;29.60;50.80;;;;;;5032807;28;20021;-62
2021/07/16 06:08:36;;;;;;;6.97;5.30;;;29.70;50.40;;;;;;5032680;28;20171;-63
2021/07/16 06:11:02;;;;;;;6.93;5.10;;;29.70;50.10;;;;;;5032854;28;20025;-64
2021/07/16 06:13:27;;;;;;;9.27;6.00;;;29.70;50.30;;;;;;5032549;28;20029;-64
2021/07/16 06:15:53;;;;;;;8.25;5.90;;;29.80;50.10;;;;;;5031570;28;20461;-64
2021/07/16 06:18:19;;;;;;;9.13;5.60;;;29.90;49.90;;;;;;5032866;28;20096;-63
2021/07/16 06:20:45;;;;;;;10.60;5.78;;;29.90;49.90;;;;;;5032696;28;20159;-64
2021/07/16 06:23:14;;;;;;;9.68;5.13;;;30.00;50.10;;;;;;5032603;28;20025;-65
2021/07/16 06:25:40;;;;;;;8.20;5.53;;;30.10;50.20;;;;;;5032472;28;20040;-64
2021/07/16 06:28:06;;;;;;;10.05;5.95;;;30.10;50.00;;;;;;5032546;28;20029;-64
2021/07/16 06:30:31;;;;;;;9.50;5.93;;;30.20;49.70;;;;;;5032661;28;20033;-64
2021/07/16 06:32:57;;;;;;;8.45;5.50;;;30.30;49.90;;;;;;5032664;28;20405;-64
2021/07/16 06:35:23;;;;;;;7.43;5.63;;;30.50;49.90;;;;;;5032540;28;20083;-63
2021/07/16 06:37:48;;;;;;;8.05;5.20;;;30.60;49.90;;;;;;5031953;28;20428;-63
2021/07/16 06:40:14;;;;;;;7.47;6.13;;;30.70;50.10;;;;;;5032235;28;20105;-63
2021/07/16 06:42:39;;;;;;;8.15;6.30;;;30.90;49.80;;;;;;5032056;28;20026;-63
2021/07/16 06:45:06;;;;;;;7.78;6.10;;;31.00;49.90;;;;;;5032100;28;20056;-64
2021/07/16 06:47:31;;;;;;;8.40;6.07;;;31.10;50.00;;;;;;5064074;28;20029;-64
2021/07/16 06:49:57;;;;;;;8.68;5.95;;;31.20;49.90;;;;;;5032980;28;20105;-64
2021/07/16 06:52:22;;;;;;;9.50;6.60;;;31.30;49.80;;;;;;5031886;28;20022;-64
2021/07/16 06:54:48;;;;;;;7.57;5.90;;;31.30;49.70;;;;;;5031972;28;20026;-64
2021/07/16 06:57:14;;;;;;;7.65;6.28;;;31.40;50.00;;;;;;5031767;28;20075;-64
2021/07/16 06:59:39;;;;;;;8.18;6.28;;;31.50;50.50;;;;;;5031855;28;20072;-64
2021/07/16 07:02:05;;;;;;;9.82;6.43;;;31.50;49.80;;;;;;5031671;28;20033;-64
2021/07/16 07:04:31;;;;;;;9.35;6.80;;;31.60;50.00;;;;;;5031617;28;20035;-64
2021/07/16 07:06:57;;;;;;;7.75;6.45;;;31.70;50.30;;;;;;5031346;28;20439;-64
2021/07/16 07:09:22;;;;;;;8.57;5.78;;;31.70;50.20;;;;;;5031450;28;20021;-65
2021/07/16 07:11:48;;;;;;;8.00;6.43;;;31.70;50.30;;;;;;5031589;28;20168;-65
2021/07/16 07:14:14;;;;;;;8.98;6.97;;;31.80;50.10;;;;;;5030227;28;20202;-64
2021/07/16 07:16:39;;;;;;;8.95;6.53;;;31.80;49.50;;;;;;5063283;28;20033;-65
2021/07/16 07:19:05;;;;;;;10.10;7.60;;;31.90;49.70;;;;;;5031463;28;20024;-64
2021/07/16 07:21:30;;;;;;;10.10;7.68;;;31.90;49.50;;;;;;5031315;28;20108;-64
2021/07/16 07:23:56;;;;;;;8.43;6.85;;;32.00;49.30;;;;;;5031475;28;20025;-65
2021/07/16 07:26:22;;;;;;;7.30;5.97;;;32.10;49.30;;;;;;5030273;28;20483;-64
2021/07/16 07:28:48;;;;;;;8.40;6.03;;;32.10;49.40;;;;;;5013844;28;20473;-64
2021/07/16 07:31:13;;;;;;;8.18;6.00;;;32.30;49.50;;;;;;5029962;28;20509;-64
2021/07/16 07:33:39;;;;;;;7.93;6.65;;;32.50;49.60;;;;;;5031962;28;20041;-65
2021/07/16 07:36:05;;;;;;;7.43;6.40;;;32.60;49.20;;;;;;5031303;28;20021;-64
2021/07/16 07:38:35;;;;;;;8.27;6.40;;;32.60;49.10;;;;;;5030180;28;20033;-64
2021/07/16 07:41:00;;;;;;;8.00;7.20;;;32.70;49.10;;;;;;5031630;28;20388;-64
2021/07/16 07:43:26;;;;;;;10.07;7.03;;;32.70;48.50;;;;;;5029995;28;20034;-65
2021/07/16 07:45:52;;;;;;;9.13;7.20;;;32.70;48.40;;;;;;5030173;28;20064;-63
2021/07/16 07:48:17;;;;;;;8.32;6.95;;;32.70;48.60;;;;;;5031238;28;20357;-64
2021/07/16 07:50:44;;;;;;;8.68;6.43;;;32.60;48.70;;;;;;5031130;28;20057;-64
2021/07/16 07:53:09;;;;;;;9.10;7.10;;;32.60;49.10;;;;;;5031153;28;20033;-64
2021/07/16 07:55:35;;;;;;;8.63;6.95;;;32.70;49.20;;;;;;5033778;28;20091;-64
2021/07/16 07:58:00;;;;;;;9.10;7.20;;;32.80;49.20;;;;;;5035468;28;20018;-64
2021/07/16 08:00:26;;;;;;;10.93;7.97;;;32.80;49.30;;;;;;5035467;28;20032;-64
2021/07/16 08:02:52;;;;;;;8.60;7.38;;;32.90;49.00;;;;;;5035465;28;20026;-64
2021/07/16 08:05:18;;;;;;;9.75;7.07;;;33.00;49.00;;;;;;5035156;28;20525;-66
2021/07/16 08:07:43;;;;;;;8.30;7.25;;;33.00;49.20;;;;;;5035030;28;20041;-64
2021/07/16 08:10:13;;;;;;;10.23;7.78;;;33.10;49.40;;;;;;5033662;28;20099;-64
2021/07/16 08:12:39;;;;;;;8.55;7.00;;;33.30;49.30;;;;;;5035462;28;20075;-64
2021/07/16 08:15:08;;;;;;;8.15;7.25;;;33.50;49.20;;;;;;5034223;28;20477;-64
2021/07/16 08:17:34;;;;;;;9.52;7.38;;;33.60;49.40;;;;;;5001807;28;20549;-64
2021/07/16 08:20:00;;;;;;;10.15;7.32;;;33.80;49.00;;;;;;5034730;28;20025;-64
2021/07/16 08:22:25;;;;;;;9.82;7.00;;;34.10;48.80;;;;;;5034819;28;20033;-63
2021/07/16 08:24:51;;;;;;;8.27;7.28;;;34.30;48.60;;;;;;5035066;28;20031;-63
2021/07/16 08:27:17;;;;;;;9.18;6.30;;;34.50;48.20;;;;;;5034766;28;20076;-63
2021/07/16 08:29:42;;;;;;;8.52;7.03;;;34.70;48.40;;;;;;5034753;28;20051;-64
2021/07/16 08:32:08;;;;;;;8.30;6.80;;;35.00;47.90;;;;;;5034513;28;20091;-65
2021/07/16 08:34:34;;;;;;;7.75;6.35;;;35.20;47.70;;;;;;5066454;28;20171;-64
2021/07/16 08:36:59;;;;;;;7.40;5.70;;;35.40;47.40;;;;;;5034724;28;20108;-65
2021/07/16 08:39:25;;;;;;;7.85;6.65;;;35.60;47.60;;;;;;5066506;28;20137;-64
2021/07/16 08:41:51;;;;;;;8.05;6.65;;;35.80;46.80;;;;;;5066413;28;20014;-64
2021/07/16 08:44:17;;;;;;;8.88;6.70;;;36.00;46.70;;;;;;5049862;28;20027;-63
2021/07/16 08:46:46;;;;;;;8.45;6.28;;;36.20;46.30;;;;;;5034308;28;20104;-65
2021/07/16 08:49:12;;;;;;;7.72;5.95;;;36.30;46.50;;;;;;5034354;28;20088;-63
2021/07/16 08:51:38;;;;;;;7.60;5.85;;;36.60;46.50;;;;;;5034301;28;20049;-64
2021/07/16 08:54:04;;;;;;;10.00;6.30;;;36.80;46.40;;;;;;5066181;28;20476;-63
2021/07/16 08:56:36;;;;;;;8.02;5.60;;;37.10;46.00;;;;;;5034276;28;20425;-64
2021/07/16 08:59:05;;;;;;;7.13;6.10;;;37.30;45.60;;;;;;5034288;28;20099;-65
2021/07/16 09:01:32;;;;;;;7.60;6.28;;;37.50;45.20;;;;;;5034604;28;20112;-66
2021/07/16 09:04:05;;;;;;;7.00;5.85;;;37.60;45.00;;;;;;5034488;28;20056;-64
2021/07/16 09:06:47;;;;;;;10.05;7.35;;;37.90;44.40;;;;;;5066204;28;20477;-64
2021/07/16 09:09:14;;;;;;;8.95;7.40;;;38.10;42.80;;;;;;5034275;28;20037;-64
2021/07/16 09:11:44;;;;;;;10.75;7.38;;;38.20;43.20;;;;;;5066136;28;20036;-64
2021/07/16 09:14:26;;;;;;;8.65;7.28;;;38.40;43.10;;;;;;5049026;28;20033;-64
2021/07/16 09:16:58;;;;;;;10.68;7.53;;;38.60;42.00;;;;;;5034024;28;20030;-64
2021/07/16 09:19:41;;;;;;;11.10;6.80;;;38.60;41.30;;;;;;5032655;28;20373;-65
2021/07/16 09:22:23;;;;;;;8.10;5.95;;;38.60;40.80;;;;;;5032629;28;20393;-65
2021/07/16 09:24:57;;;;;;;7.13;5.85;;;38.80;40.70;;;;;;5032812;28;20017;-65
2021/07/16 09:27:45;;;;;;;7.60;6.20;;;38.90;40.80;;;;;;5032236;28;20035;-65
2021/07/16 09:30:23;;;;;;;8.52;5.35;;;39.20;41.10;;;;;;5033972;28;20048;-65
2021/07/16 09:32:53;;;;;;;7.40;5.53;;;39.40;40.70;;;;;;5033755;28;20049;-65
2021/07/16 09:35:33;;;;;;;7.43;5.53;;;39.50;40.80;;;;;;5032185;28;20080;-63
2021/07/16 09:38:15;;;;;;;6.47;5.43;;;39.80;40.70;;;;;;5033381;28;20022;-64
2021/07/16 09:40:43;;;;;;;7.15;6.10;;;40.10;39.90;;;;;;5032225;28;20056;-65
2021/07/16 09:43:12;;;;;;;7.18;5.78;;;40.20;40.30;;;;;;5033117;28;20420;-64
2021/07/16 09:45:39;;;;;;;7.63;6.10;;;40.30;40.10;;;;;;5033317;28;20032;-64
2021/07/16 09:48:21;;;;;;;8.40;6.35;;;40.30;40.10;;;;;;5033195;28;20374;-65
2021/07/16 09:50:47;;;;;;;7.03;5.70;;;40.40;39.50;;;;;;5033272;28;20029;-64
2021/07/16 09:53:30;;;;;;;8.68;6.00;;;40.40;39.70;;;;;;5031903;28;20376;-64
2021/07/16 09:56:14;;;;;;;7.60;5.90;;;40.50;39.50;;;;;;5033216;28;20567;-64
2021/07/16 09:58:40;;;;;;;8.68;6.80;;;40.50;39.40;;;;;;5033354;28;20025;-64
2021/07/16 10:01:06;;;;;;;7.65;6.28;;;40.50;39.50;;;;;;5031946;28;20362;-64
2021/07/16 10:03:32;;;;;;;8.00;6.18;;;40.50;39.40;;;;;;5033151;28;20028;-64
2021/07/16 10:05:57;;;;;;;8.38;6.30;;;40.50;39.60;;;;;;5032892;28;20017;-64
2021/07/16 10:08:23;;;;;;;7.68;6.47;;;40.60;39.40;;;;;;5031344;28;20042;-63
2021/07/16 10:10:50;;;;;;;9.63;7.03;;;40.60;39.20;;;;;;5031685;28;20376;-64
2021/07/16 10:13:16;;;;;;;9.10;6.60;;;40.70;39.40;;;;;;5031391;28;20096;-64
2021/07/16 10:15:43;;;;;;;7.95;6.47;;;40.80;39.40;;;;;;5031719;28;20017;-64
2021/07/16 10:18:08;;;;;;;7.57;6.32;;;40.90;39.30;;;;;;5031906;28;20477;-65
2021/07/16 10:20:37;;;;;;;7.47;6.38;;;41.10;39.20;;;;;;5032687;28;20040;-64
2021/07/16 10:23:03;;;;;;;8.15;6.20;;;41.20;38.40;;;;;;5031141;28;20388;-64
2021/07/16 10:25:29;;;;;;;7.75;5.97;;;41.20;38.20;;;;;;5047213;28;20025;-65
2021/07/16 10:27:54;;;;;;;7.35;5.82;;;41.20;38.40;;;;;;5031096;28;20124;-64
2021/07/16 10:30:20;;;;;;;9.57;6.55;;;41.40;38.30;;;;;;5032554;28;20041;-63
2021/07/16 10:32:47;;;;;;;7.88;6.15;;;41.60;38.30;;;;;;5032552;28;20060;-64
2021/07/16 10:35:16;;;;;;;8.00;7.03;;;41.70;38.20;;;;;;5032294;28;20040;-64
2021/07/16 10:37:42;;;;;;;7.87;7.07;;;41.90;37.90;;;;;;5032361;28;20025;-64
2021/07/16 10:40:08;;;;;;;8.25;6.28;;;41.90;38.10;;;;;;5032188;28;20261;-64
2021/07/16 10:42:37;;;;;;;7.25;6.43;;;41.90;38.40;;;;;;5064384;28;20465;-65
2021/07/16 10:45:05;;;;;;;6.35;5.60;;;42.10;38.60;;;;;;5032299;28;20064;-64
2021/07/16 10:47:46;;;;;;;9.15;7.00;;;42.20;38.50;;;;;;5032265;28;20033;-65
2021/07/16 10:50:27;;;;;;;6.90;6.20;;;42.50;37.90;;;;;;5032455;28;20381;-67
2021/07/16 10:52:53;;;;;;;6.63;5.85;;;42.50;37.60;;;;;;5032105;28;20029;-64
2021/07/16 10:55:39;;;;;;;8.35;6.40;;;42.50;37.90;;;;;;5031985;28;20071;-64
2021/07/16 10:58:18;;;;;;;7.00;6.30;;;42.60;37.70;;;;;;5034693;28;20108;-64
2021/07/16 11:00:44;;;;;;;9.43;5.70;;;42.80;37.60;;;;;;5031942;28;20461;-64
2021/07/16 11:03:10;;;;;;;8.57;5.97;;;42.90;37.70;;;;;;5031907;28;20052;-64
2021/07/16 11:05:36;;;;;;;9.02;6.20;;;43.20;37.70;;;;;;5031989;28;20100;-64
2021/07/16 11:08:24;;;;;;;7.32;6.18;;;43.40;37.10;;;;;;5030595;28;20052;-64
2021/07/16 11:10:51;;;;;;;8.15;5.53;;;43.40;37.10;;;;;;5032522;28;20480;-64
2021/07/16 11:13:51;;;;;;;6.82;5.57;;;43.40;37.20;;;;;;5032074;28;20042;-65
2021/07/16 11:16:24;;;;;;;6.97;5.60;;;43.60;36.60;;;;;;5031731;28;20014;-64
2021/07/16 11:18:57;;;;;;;7.95;6.75;;;43.70;36.60;;;;;;5031730;28;20113;-64
2021/07/16 11:21:53;;;;;;;7.20;6.05;;;43.80;36.10;;;;;;5030341;28;20461;-64
2021/07/16 11:24:19;;;;;;;8.40;5.85;;;43.70;36.40;;;;;;5023168;28;20473;-64
2021/07/16 11:26:58;;;;;;;7.13;5.93;;;43.70;36.70;;;;;;5031754;28;20023;-64
2021/07/16 11:29:25;;;;;;;9.13;6.43;;;43.80;36.50;;;;;;5031521;28;20070;-64
2021/07/16 11:32:20;;;;;;;7.80;6.10;;;44.00;36.30;;;;;;5031738;28;20266;-63
2021/07/16 11:34:51;;;;;;;7.47;5.97;;;44.10;36.00;;;;;;5022536;28;20049;-65
2021/07/16 11:37:23;;;;;;;6.32;5.60;;;44.10;36.40;;;;;;5029953;28;20472;-65
2021/07/16 11:39:51;;;;;;;7.22;5.80;;;44.20;36.60;;;;;;5031282;28;20025;-64
2021/07/16 11:42:18;;;;;;;7.30;5.72;;;44.40;36.30;;;;;;5030135;28;20431;-64
2021/07/16 11:44:43;;;;;;;6.90;5.82;;;44.60;36.20;;;;;;5031276;28;20022;-65
2021/07/16 11:47:26;;;;;;;6.70;5.18;;;44.60;36.40;;;;;;5031074;28;20384;-64
2021/07/16 11:49:55;;;;;;;6.97;6.00;;;44.80;36.50;;;;;;5031337;28;20380;-64
2021/07/16 11:52:25;;;;;;;9.35;6.07;;;44.90;36.10;;;;;;5031168;28;20465;-64
2021/07/16 11:54:52;;;;;;;6.90;5.30;;;44.90;36.00;;;;;;5031385;28;20034;-64
2021/07/16 11:57:18;;;;;;;7.85;6.10;;;45.10;35.90;;;;;;5031359;28;20457;-65
2021/07/16 11:59:51;;;;;;;7.25;5.85;;;45.40;35.20;;;;;;5013680;28;20116;-65
2021/07/16 12:02:21;;;;;;;9.40;6.20;;;45.20;35.30;;;;;;5030419;28;20029;-64
2021/07/16 12:04:47;;;;;;;6.95;5.68;;;45.20;35.40;;;;;;5031274;28;20389;-65
2021/07/16 12:07:13;;;;;;;7.22;6.22;;;45.20;35.60;;;;;;5029671;28;20044;-65
2021/07/16 12:09:41;;;;;;;8.20;5.78;;;45.30;35.50;;;;;;5031586;28;20034;-64
2021/07/16 12:12:18;;;;;;;8.75;6.90;;;45.30;35.40;;;;;;5013818;28;20044;-64
2021/07/16 12:14:52;;;;;;;7.50;6.47;;;45.30;35.20;;;;;;5012589;28;20491;-65
2021/07/16 12:17:20;;;;;;;8.43;6.95;;;45.30;35.30;;;;;;5030853;28;20095;-65
2021/07/16 12:19:45;;;;;;;8.25;7.10;;;45.50;35.10;;;;;;5030033;28;20372;-65
2021/07/16 12:22:13;;;;;;;9.90;8.48;;;45.60;35.00;;;;;;5030922;28;20033;-65
2021/07/16 12:24:40;;;;;;;9.85;8.25;;;45.60;34.60;;;;;;5029543;28;20032;-65
2021/07/16 12:27:10;;;;;;;12.25;10.00;;;45.50;34.50;;;;;;5030953;28;20025;-65
2021/07/16 12:29:35;;;;;;;9.63;8.30;;;45.40;34.50;;;;;;5030075;28;20438;-65
2021/07/16 12:32:01;;;;;;;9.95;8.48;;;45.30;34.70;;;;;;5029835;28;20048;-64
2021/07/16 12:34:27;;;;;;;8.63;7.47;;;45.50;34.80;;;;;;5029322;28;20045;-64
2021/07/16 12:37:13;;;;;;;8.93;7.55;;;45.70;34.60;;;;;;5030837;28;20022;-65
2021/07/16 12:39:40;;;;;;;8.38;6.40;;;45.80;34.40;;;;;;5030779;28;20021;-65
2021/07/16 12:42:17;;;;;;;8.52;7.18;;;46.10;34.70;;;;;;5033656;28;20022;-64